createdAt,value
2023-08-25T00:00:10.233Z,78.80
2023-08-25T00:02:42.984Z,78.80
2023-08-25T00:05:11.331Z,78.70
2023-08-25T00:07:39.090Z,78.70
2023-08-25T00:10:08.024Z,78.80
2023-08-25T00:12:36.918Z,78.70
2023-08-25T00:15:05.950Z,78.70
2023-08-25T00:17:33.985Z,78.70
2023-08-25T00:20:06.477Z,78.70
2023-08-25T00:22:34.215Z,78.70
2023-08-25T00:25:02.221Z,78.80
2023-08-25T00:27:29.991Z,78.70
2023-08-25T00:29:57.833Z,78.70
2023-08-25T00:32:25.732Z,78.80
2023-08-25T00:34:55.664Z,78.70
2023-08-25T00:37:27.498Z,78.80
2023-08-25T00:39:55.455Z,78.80
2023-08-25T00:42:23.246Z,78.80
2023-08-25T00:44:51.175Z,78.80
2023-08-25T00:47:20.164Z,78.80
2023-08-25T00:49:49.932Z,78.80
2023-08-25T00:52:20.164Z,78.80
2023-08-25T00:54:51.588Z,78.80
2023-08-25T00:57:19.616Z,78.80
2023-08-25T00:59:48.238Z,78.80
2023-08-25T01:02:16.538Z,78.80
2023-08-25T01:04:44.319Z,78.80
2023-08-25T01:07:13.206Z,78.80
2023-08-25T01:09:41.404Z,78.80
2023-08-25T01:12:18.674Z,78.80
2023-08-25T01:14:55.902Z,78.80
2023-08-25T01:17:30.235Z,78.80
2023-08-25T01:19:59.350Z,78.90
2023-08-25T01:22:34.388Z,78.80
2023-08-25T01:25:24.890Z,78.90
2023-08-25T01:27:53.693Z,78.90
2023-08-25T01:30:23.951Z,78.90
2023-08-25T01:32:52.428Z,78.90
2023-08-25T01:35:25.069Z,78.90
2023-08-25T01:37:59.747Z,78.90
2023-08-25T01:40:35.601Z,78.90
2023-08-25T01:43:04.751Z,78.90
2023-08-25T01:45:33.040Z,78.90
2023-08-25T01:48:02.414Z,78.90
2023-08-25T01:50:30.511Z,78.90
2023-08-25T01:52:59.261Z,78.90
2023-08-25T01:55:27.102Z,79.00
2023-08-25T01:57:56.161Z,78.90
2023-08-25T02:00:24.245Z,78.90
2023-08-25T02:02:52.044Z,78.90
2023-08-25T02:05:20.074Z,78.90
2023-08-25T02:07:47.882Z,79.00
2023-08-25T02:10:15.737Z,78.90
2023-08-25T02:12:43.494Z,78.90
2023-08-25T02:15:12.900Z,78.90
2023-08-25T02:17:41.410Z,78.90
2023-08-25T02:20:11.304Z,79.00
2023-08-25T02:22:39.217Z,79.00
2023-08-25T02:25:07.779Z,78.90
2023-08-25T02:27:35.627Z,78.90
2023-08-25T02:30:04.100Z,78.90
2023-08-25T02:32:33.228Z,78.90
2023-08-25T02:35:01.334Z,78.90
2023-08-25T02:37:29.273Z,78.90
2023-08-25T02:39:57.054Z,79.00
2023-08-25T02:42:24.791Z,79.00
2023-08-25T02:44:52.644Z,78.90
2023-08-25T02:47:21.489Z,78.90
2023-08-25T02:49:50.578Z,78.90
2023-08-25T02:52:18.322Z,78.90
2023-08-25T02:54:46.256Z,78.90
2023-08-25T02:57:14.026Z,78.90
2023-08-25T02:59:41.808Z,78.90
2023-08-25T03:02:09.974Z,78.90
2023-08-25T03:04:37.821Z,78.90
2023-08-25T03:07:07.149Z,78.90
2023-08-25T03:09:35.048Z,78.90
2023-08-25T03:12:02.954Z,79.00
2023-08-25T03:14:30.753Z,78.90
2023-08-25T03:16:58.549Z,78.90
2023-08-25T03:19:26.427Z,78.90
2023-08-25T03:21:54.841Z,79.00
2023-08-25T03:24:24.116Z,79.00
2023-08-25T03:26:51.994Z,79.00
2023-08-25T03:29:19.764Z,78.90
2023-08-25T03:31:47.978Z,78.90
2023-08-25T03:34:15.737Z,79.00
2023-08-25T03:36:43.550Z,78.90
2023-08-25T03:39:12.628Z,78.90
2023-08-25T03:41:41.727Z,79.00
2023-08-25T03:44:10.365Z,79.00
2023-08-25T03:46:38.519Z,78.90
2023-08-25T03:49:07.215Z,78.90
2023-08-25T03:51:35.066Z,78.90
2023-08-25T03:54:02.897Z,79.00
2023-08-25T03:56:30.708Z,79.00
2023-08-25T03:58:59.830Z,79.80
2023-08-25T04:01:27.605Z,78.90
2023-08-25T04:03:55.485Z,78.90
2023-08-25T04:06:23.820Z,79.00
2023-08-25T04:08:51.696Z,78.90
2023-08-25T04:11:19.448Z,78.90
2023-08-25T04:13:47.183Z,78.90
2023-08-25T04:16:16.958Z,79.10
2023-08-25T04:18:46.631Z,79.00
2023-08-25T04:21:15.147Z,79.00
2023-08-25T04:23:44.252Z,79.10
2023-08-25T04:26:12.013Z,79.10
2023-08-25T04:28:39.822Z,79.20
2023-08-25T04:31:07.660Z,79.20
2023-08-25T04:33:42.634Z,79.10
2023-08-25T04:36:12.146Z,79.10
2023-08-25T04:38:40.059Z,79.20
2023-08-25T04:41:07.977Z,79.20
2023-08-25T04:43:35.844Z,79.20
2023-08-25T04:46:03.909Z,79.20
2023-08-25T04:48:31.729Z,79.30
2023-08-25T04:51:00.896Z,79.30
2023-08-25T04:53:29.003Z,80.10
2023-08-25T04:55:57.553Z,79.30
2023-08-25T04:58:26.245Z,79.30
2023-08-25T05:00:55.840Z,79.30
2023-08-25T05:03:24.800Z,79.30
2023-08-25T05:05:53.171Z,79.40
2023-08-25T05:08:23.776Z,79.50
2023-08-25T05:10:52.792Z,79.60
2023-08-25T05:13:21.617Z,79.70
2023-08-25T05:15:50.166Z,79.90
2023-08-25T05:18:26.965Z,80.10
2023-08-25T05:21:00.313Z,80.00
2023-08-25T05:23:29.490Z,80.10
2023-08-25T05:25:57.985Z,80.20
2023-08-25T05:28:28.021Z,80.40
2023-08-25T05:30:56.445Z,81.40
2023-08-25T05:33:39.472Z,80.70
2023-08-25T05:36:26.301Z,80.90
2023-08-25T05:38:55.423Z,81.00
2023-08-25T05:41:23.352Z,81.10
2023-08-25T05:43:51.159Z,81.10
2023-08-25T05:46:19.127Z,81.40
2023-08-25T05:48:46.941Z,81.40
2023-08-25T05:51:14.806Z,81.50
2023-08-25T05:53:42.571Z,81.50
2023-08-25T05:56:13.030Z,81.60
2023-08-25T05:58:43.119Z,81.60
2023-08-25T06:01:12.948Z,81.70
2023-08-25T06:03:41.120Z,81.60
2023-08-25T06:06:08.996Z,81.60
2023-08-25T06:08:37.511Z,81.60
2023-08-25T06:11:05.773Z,81.60
2023-08-25T06:13:34.892Z,81.60
2023-08-25T06:16:04.076Z,81.50
2023-08-25T06:18:31.893Z,81.50
2023-08-25T06:20:59.683Z,81.50
2023-08-25T06:23:27.487Z,81.50
2023-08-25T06:25:55.586Z,81.40
2023-08-25T06:28:23.463Z,81.50
2023-08-25T06:30:53.157Z,81.40
2023-08-25T06:33:21.051Z,81.40
2023-08-25T06:35:48.808Z,81.40
2023-08-25T06:38:16.664Z,81.40
2023-08-25T06:40:44.462Z,81.40
2023-08-25T06:43:12.229Z,81.40
2023-08-25T06:45:40.401Z,81.40
2023-08-25T06:48:10.043Z,81.40
2023-08-25T06:50:37.819Z,81.50
2023-08-25T06:53:08.610Z,81.50
2023-08-25T06:55:36.474Z,81.50
2023-08-25T06:58:06.800Z,81.50
2023-08-25T07:00:35.343Z,81.50
2023-08-25T07:03:04.688Z,81.50
2023-08-25T07:05:34.817Z,81.60
2023-08-25T07:08:02.609Z,81.70
2023-08-25T07:10:30.369Z,81.70
2023-08-25T07:12:58.144Z,81.70
2023-08-25T07:15:26.021Z,81.70
2023-08-25T07:17:54.273Z,81.80
2023-08-25T07:20:22.325Z,81.70
2023-08-25T07:22:52.077Z,81.70
2023-08-25T07:25:19.868Z,81.80
2023-08-25T07:27:47.703Z,81.80
2023-08-25T07:30:15.578Z,81.80
2023-08-25T07:32:43.364Z,81.80
2023-08-25T07:35:11.156Z,81.80
2023-08-25T07:37:42.286Z,81.80
2023-08-25T07:40:13.422Z,81.90
2023-08-25T07:42:41.209Z,82.10
2023-08-25T07:45:10.155Z,82.10
2023-08-25T07:47:37.930Z,82.30
2023-08-25T07:50:06.591Z,82.40
2023-08-25T07:52:34.373Z,82.60
2023-08-25T07:55:02.156Z,82.70
2023-08-25T07:57:31.259Z,82.70
2023-08-25T07:59:59.078Z,82.80
2023-08-25T08:02:27.406Z,82.90
2023-08-25T08:04:55.257Z,82.90
2023-08-25T08:07:23.083Z,82.90
2023-08-25T08:09:51.360Z,82.90
2023-08-25T08:12:19.277Z,83.00
2023-08-25T08:14:48.346Z,83.00
2023-08-25T08:17:16.134Z,83.00
2023-08-25T08:19:43.861Z,83.10
2023-08-25T08:22:11.646Z,83.10
2023-08-25T08:24:50.309Z,83.10
2023-08-25T08:27:19.699Z,83.30
2023-08-25T08:29:49.538Z,83.30
2023-08-25T08:32:18.207Z,83.30
2023-08-25T08:34:45.964Z,84.20
2023-08-25T08:37:13.804Z,83.50
2023-08-25T08:39:41.617Z,83.50
2023-08-25T08:42:09.656Z,83.50
2023-08-25T08:44:38.446Z,83.50
2023-08-25T08:47:10.688Z,83.60
2023-08-25T08:49:38.880Z,83.60
2023-08-25T08:52:08.858Z,83.80
2023-08-25T08:54:38.791Z,83.90
2023-08-25T08:57:07.258Z,84.00
2023-08-25T08:59:36.298Z,84.10
2023-08-25T09:02:06.075Z,84.20
2023-08-25T09:04:37.926Z,84.30
2023-08-25T09:07:06.433Z,84.40
2023-08-25T09:09:34.262Z,84.30
2023-08-25T09:12:02.416Z,84.40
2023-08-25T09:14:31.177Z,84.30
2023-08-25T09:17:01.541Z,84.30
2023-08-25T09:19:32.006Z,84.30
2023-08-25T09:22:01.666Z,84.30
2023-08-25T09:24:30.431Z,84.30
2023-08-25T09:26:58.353Z,84.30
2023-08-25T09:29:26.407Z,84.40
2023-08-25T09:31:54.293Z,84.20
2023-08-25T09:34:22.089Z,84.20
2023-08-25T09:36:54.403Z,84.10
2023-08-25T09:39:24.291Z,84.00
2023-08-25T09:41:52.493Z,84.00
2023-08-25T09:44:20.222Z,83.80
2023-08-25T09:46:48.039Z,83.70
2023-08-25T09:49:16.623Z,83.70
2023-08-25T09:51:45.501Z,83.70
2023-08-25T09:54:15.967Z,83.70
2023-08-25T09:56:46.175Z,83.80
2023-08-25T09:59:15.238Z,84.10
2023-08-25T10:01:45.370Z,84.10
2023-08-25T10:04:14.978Z,84.10
2023-08-25T10:06:42.932Z,84.10
2023-08-25T10:09:10.948Z,84.00
2023-08-25T10:11:41.302Z,84.10
2023-08-25T10:14:12.933Z,84.10
2023-08-25T10:16:41.977Z,84.10
2023-08-25T10:19:15.466Z,84.00
2023-08-25T10:21:46.153Z,83.90
2023-08-25T10:24:15.908Z,83.70
2023-08-25T10:26:44.837Z,83.60
2023-08-25T10:29:15.371Z,83.70
2023-08-25T10:31:47.721Z,83.70
2023-08-25T10:34:37.586Z,83.70
2023-08-25T10:37:11.100Z,83.60
2023-08-25T10:39:49.804Z,83.60
2023-08-25T10:42:22.515Z,83.60
2023-08-25T10:44:56.492Z,83.60
2023-08-25T10:47:24.813Z,83.60
2023-08-25T10:49:56.818Z,83.50
2023-08-25T10:52:25.077Z,83.40
2023-08-25T10:54:54.376Z,83.40
2023-08-25T10:57:40.457Z,83.30
2023-08-25T11:00:39.514Z,83.30
2023-08-25T11:03:07.593Z,83.30
2023-08-25T11:05:45.949Z,83.20
2023-08-25T11:08:27.945Z,83.20
2023-08-25T11:11:15.263Z,83.00
2023-08-25T11:13:43.829Z,82.90
2023-08-25T11:16:14.223Z,82.80
2023-08-25T11:18:43.229Z,82.60
2023-08-25T11:21:11.185Z,82.40
2023-08-25T11:23:40.289Z,82.30
2023-08-25T11:26:09.628Z,82.20
2023-08-25T11:28:37.934Z,82.10
2023-08-25T11:31:06.413Z,82.10
2023-08-25T11:33:35.765Z,81.90
2023-08-25T11:36:05.649Z,81.80
2023-08-25T11:38:33.520Z,81.90
2023-08-25T11:41:01.332Z,81.90
2023-08-25T11:43:30.526Z,81.90
2023-08-25T11:45:59.237Z,81.90
2023-08-25T11:48:27.180Z,81.90
2023-08-25T11:50:56.266Z,81.90
2023-08-25T11:53:24.446Z,81.80
2023-08-25T11:56:02.749Z,81.70
2023-08-25T11:58:31.910Z,81.80
2023-08-25T12:01:08.207Z,81.70
2023-08-25T12:03:36.381Z,81.70
2023-08-25T12:06:09.843Z,81.70
2023-08-25T12:08:38.870Z,81.80
2023-08-25T12:11:08.715Z,81.90
2023-08-25T12:13:38.750Z,81.90
2023-08-25T12:16:07.004Z,82.10
2023-08-25T12:18:35.943Z,82.20
2023-08-25T12:21:05.596Z,82.30
2023-08-25T12:23:39.551Z,82.40
2023-08-25T12:26:09.759Z,82.50
2023-08-25T12:28:37.721Z,82.60
2023-08-25T12:31:05.631Z,82.80
2023-08-25T12:33:33.800Z,82.90
2023-08-25T12:36:01.763Z,83.00
2023-08-25T12:38:30.872Z,83.10
2023-08-25T12:41:00.729Z,83.20
2023-08-25T12:43:29.162Z,83.20
2023-08-25T12:45:57.563Z,83.30
2023-08-25T12:48:25.652Z,83.40
2023-08-25T12:50:53.415Z,83.50
2023-08-25T12:53:21.235Z,83.50
2023-08-25T12:55:49.030Z,83.50
2023-08-25T12:58:18.128Z,83.50
2023-08-25T13:00:45.923Z,83.40
2023-08-25T13:03:13.996Z,83.40
2023-08-25T13:05:42.778Z,83.30
2023-08-25T13:08:10.535Z,83.30
2023-08-25T13:10:38.329Z,83.30
2023-08-25T13:13:07.197Z,83.20
2023-08-25T13:15:36.413Z,83.20
2023-08-25T13:18:04.530Z,83.20
2023-08-25T13:20:32.356Z,83.10
2023-08-25T13:23:00.128Z,83.20
2023-08-25T13:25:27.974Z,83.20
2023-08-25T13:27:55.902Z,83.30
2023-08-25T13:30:23.960Z,83.30
2023-08-25T13:32:53.232Z,83.40
2023-08-25T13:35:21.030Z,83.40
2023-08-25T13:37:49.005Z,83.50
2023-08-25T13:40:16.759Z,83.40
2023-08-25T13:42:44.588Z,83.30
2023-08-25T13:45:12.543Z,83.30
2023-08-25T13:47:40.733Z,83.30
2023-08-25T13:50:11.669Z,83.30
2023-08-25T13:52:39.476Z,83.30
2023-08-25T13:55:08.483Z,83.20
2023-08-25T13:57:38.980Z,83.20
2023-08-25T14:00:08.444Z,83.20
2023-08-25T14:02:43.038Z,83.20
2023-08-25T14:05:13.991Z,83.20
2023-08-25T14:07:42.171Z,83.20
2023-08-25T14:10:10.824Z,83.10
2023-08-25T14:12:39.580Z,83.10
2023-08-25T14:15:08.829Z,83.00
2023-08-25T14:17:36.771Z,83.00
2023-08-25T14:20:05.990Z,83.10
2023-08-25T14:22:35.557Z,83.00
2023-08-25T14:25:03.396Z,83.00
2023-08-25T14:27:31.340Z,83.00
2023-08-25T14:30:00.820Z,83.10
2023-08-25T14:32:29.011Z,83.20
2023-08-25T14:34:57.169Z,83.50
2023-08-25T14:37:25.474Z,83.70
2023-08-25T14:39:54.764Z,83.70
2023-08-25T14:42:22.506Z,84.70
2023-08-25T14:44:50.252Z,83.90
2023-08-25T14:47:18.063Z,83.90
2023-08-25T14:49:45.996Z,83.90
2023-08-25T14:52:13.744Z,83.90
2023-08-25T14:54:41.480Z,84.00
2023-08-25T14:57:10.658Z,84.00
2023-08-25T14:59:38.417Z,84.10
2023-08-25T15:02:06.264Z,84.10
2023-08-25T15:04:34.500Z,84.10
2023-08-25T15:07:02.256Z,84.00
2023-08-25T15:09:29.985Z,84.00
2023-08-25T15:11:58.113Z,84.00
2023-08-25T15:14:27.406Z,84.00
2023-08-25T15:16:55.392Z,83.90
2023-08-25T15:19:23.188Z,83.90
2023-08-25T15:21:50.946Z,84.60
2023-08-25T15:24:18.775Z,83.80
2023-08-25T15:26:46.682Z,83.70
2023-08-25T15:29:14.422Z,83.80
2023-08-25T15:31:43.568Z,83.80
2023-08-25T15:34:11.338Z,83.80
2023-08-25T15:36:39.206Z,83.80
2023-08-25T15:39:07.123Z,83.90
2023-08-25T15:41:37.563Z,83.90
2023-08-25T15:44:05.757Z,83.80
2023-08-25T15:46:33.606Z,83.90
2023-08-25T15:49:03.086Z,83.90
2023-08-25T15:51:30.848Z,83.90
2023-08-25T15:53:58.600Z,83.80
2023-08-25T15:56:26.392Z,83.70
2023-08-25T15:58:54.181Z,83.70
2023-08-25T16:01:22.020Z,83.70
2023-08-25T16:03:49.866Z,83.60
2023-08-25T16:06:19.000Z,83.60
2023-08-25T16:08:46.775Z,83.50
2023-08-25T16:11:14.629Z,83.50
2023-08-25T16:13:43.559Z,83.50
2023-08-25T16:16:11.424Z,83.50
2023-08-25T16:18:41.490Z,83.60
2023-08-25T16:21:09.287Z,83.60
2023-08-25T16:23:39.689Z,83.80
2023-08-25T16:26:09.218Z,83.70
2023-08-25T16:28:38.746Z,83.70
2023-08-25T16:31:08.165Z,83.80
2023-08-25T16:33:36.883Z,83.70
2023-08-25T16:36:07.451Z,83.70
2023-08-25T16:38:36.921Z,83.70
2023-08-25T16:41:08.134Z,83.70
2023-08-25T16:43:35.954Z,83.70
2023-08-25T16:46:04.699Z,83.70
2023-08-25T16:48:32.580Z,83.70
2023-08-25T16:51:00.341Z,83.80
2023-08-25T16:53:28.091Z,83.80
2023-08-25T16:55:59.029Z,83.90
2023-08-25T16:58:29.520Z,84.00
2023-08-25T17:00:57.410Z,84.10
2023-08-25T17:03:25.336Z,84.10
2023-08-25T17:05:59.869Z,84.30
2023-08-25T17:08:28.829Z,84.40
2023-08-25T17:10:56.613Z,84.50
2023-08-25T17:13:24.418Z,84.50
2023-08-25T17:15:53.729Z,84.50
2023-08-25T17:18:22.218Z,84.60
2023-08-25T17:20:50.010Z,84.60
2023-08-25T17:23:17.784Z,84.70
2023-08-25T17:25:45.629Z,84.80
2023-08-25T17:28:13.453Z,84.90
2023-08-25T17:30:41.387Z,85.10
2023-08-25T17:33:10.585Z,85.10
2023-08-25T17:35:39.896Z,85.30
2023-08-25T17:38:07.698Z,85.40
2023-08-25T17:40:39.391Z,85.60
2023-08-25T17:43:07.173Z,85.60
2023-08-25T17:45:34.961Z,85.70
2023-08-25T17:48:02.757Z,85.70
2023-08-25T17:50:33.491Z,85.90
2023-08-25T17:53:01.266Z,86.00
2023-08-25T17:55:29.195Z,86.10
2023-08-25T17:57:56.927Z,86.20
2023-08-25T18:00:24.690Z,86.20
2023-08-25T18:02:52.677Z,86.20
2023-08-25T18:05:20.872Z,86.20
2023-08-25T18:07:49.988Z,86.30
2023-08-25T18:10:17.731Z,86.30
2023-08-25T18:12:45.728Z,86.30
2023-08-25T18:15:13.492Z,86.40
2023-08-25T18:17:41.262Z,86.40
2023-08-25T18:20:10.397Z,86.50
2023-08-25T18:22:38.151Z,86.60
2023-08-25T18:25:08.200Z,86.60
2023-08-25T18:27:35.956Z,86.60
2023-08-25T18:30:05.256Z,86.50
2023-08-25T18:32:33.057Z,86.50
2023-08-25T18:35:00.804Z,86.50
2023-08-25T18:37:28.547Z,86.50
2023-08-25T18:39:56.333Z,86.50
2023-08-25T18:42:25.625Z,86.60
2023-08-25T18:44:53.380Z,86.50
2023-08-25T18:47:21.130Z,86.40
2023-08-25T18:49:49.023Z,86.40
2023-08-25T18:52:16.796Z,86.40
2023-08-25T18:54:44.568Z,86.40
2023-08-25T18:57:12.479Z,86.40
2023-08-25T18:59:41.735Z,86.40
2023-08-25T19:02:10.851Z,86.30
2023-08-25T19:04:39.008Z,86.40
2023-08-25T19:07:06.856Z,86.50
2023-08-25T19:09:35.346Z,86.60
2023-08-25T19:12:03.141Z,86.60
2023-08-25T19:14:30.907Z,86.60
2023-08-25T19:16:59.990Z,86.70
2023-08-25T19:19:28.004Z,86.70
2023-08-25T19:21:56.448Z,86.70
2023-08-25T19:24:26.190Z,86.70
2023-08-25T19:26:55.952Z,86.70
2023-08-25T19:29:23.699Z,86.80
2023-08-25T19:31:51.494Z,86.80
2023-08-25T19:34:22.329Z,86.80
2023-08-25T19:36:50.150Z,86.80
2023-08-25T19:39:17.971Z,86.80
2023-08-25T19:41:45.758Z,86.80
2023-08-25T19:44:13.520Z,86.80
2023-08-25T19:46:41.337Z,86.80
2023-08-25T19:49:09.132Z,86.80
2023-08-25T19:51:41.414Z,86.80
2023-08-25T19:54:09.658Z,86.90
2023-08-25T19:56:37.417Z,86.80
2023-08-25T19:59:05.382Z,86.80
2023-08-25T20:01:33.205Z,86.90
2023-08-25T20:04:01.055Z,86.80
2023-08-25T20:06:28.860Z,87.70
2023-08-25T20:08:58.500Z,86.80
2023-08-25T20:11:27.823Z,86.70
2023-08-25T20:13:55.586Z,86.70
2023-08-25T20:16:24.625Z,86.70
2023-08-25T20:18:52.545Z,86.70
2023-08-25T20:21:20.382Z,86.60
2023-08-25T20:23:48.179Z,86.60
2023-08-25T20:26:17.273Z,86.50
2023-08-25T20:28:45.283Z,86.50
2023-08-25T20:31:13.111Z,86.50
2023-08-25T20:33:40.981Z,86.40
2023-08-25T20:36:09.061Z,86.40
2023-08-25T20:38:36.834Z,86.40
2023-08-25T20:41:06.347Z,86.30
2023-08-25T20:43:37.684Z,86.30
2023-08-25T20:46:15.496Z,86.30
2023-08-25T20:48:44.830Z,86.20
2023-08-25T20:51:12.634Z,86.20
2023-08-25T20:53:41.222Z,86.20
2023-08-25T20:56:09.118Z,86.20
2023-08-25T20:58:38.224Z,86.10
2023-08-25T21:01:06.331Z,86.10
2023-08-25T21:03:34.681Z,86.10
2023-08-25T21:06:03.081Z,86.10
2023-08-25T21:08:31.326Z,86.00
2023-08-25T21:10:59.167Z,86.00
2023-08-25T21:13:27.142Z,86.00
2023-08-25T21:15:56.397Z,86.00
2023-08-25T21:18:24.643Z,85.90
2023-08-25T21:20:54.135Z,86.00
2023-08-25T21:23:23.541Z,85.90
2023-08-25T21:25:52.851Z,85.90
2023-08-25T21:28:22.835Z,85.80
2023-08-25T21:30:54.459Z,85.80
2023-08-25T21:33:25.469Z,85.80
2023-08-25T21:35:53.366Z,85.80
2023-08-25T21:38:21.220Z,85.80
2023-08-25T21:40:49.112Z,85.80
2023-08-25T21:43:17.668Z,85.70
2023-08-25T21:45:49.038Z,85.70
2023-08-25T21:48:16.868Z,85.70
2023-08-25T21:50:47.660Z,85.60
2023-08-25T21:53:15.434Z,85.60
2023-08-25T21:55:44.060Z,85.60
2023-08-25T21:58:11.957Z,85.50
2023-08-25T22:00:39.984Z,85.50
2023-08-25T22:03:07.905Z,85.50
2023-08-25T22:05:38.242Z,85.50
2023-08-25T22:08:08.836Z,85.50
2023-08-25T22:10:37.362Z,85.50
2023-08-25T22:13:05.547Z,85.50
2023-08-25T22:15:33.832Z,85.40
2023-08-25T22:18:01.689Z,85.40
2023-08-25T22:20:29.498Z,85.40
2023-08-25T22:22:57.407Z,85.40
2023-08-25T22:25:26.636Z,85.40
2023-08-25T22:27:54.594Z,85.40
2023-08-25T22:30:22.436Z,85.40
2023-08-25T22:35:20.920Z,85.40
2023-08-25T22:37:48.735Z,85.40
2023-08-25T22:40:16.638Z,85.30
2023-08-25T22:42:45.819Z,85.30
2023-08-25T22:45:13.587Z,85.30
2023-08-25T22:47:41.917Z,85.30
2023-08-25T22:50:10.336Z,85.30
2023-08-25T22:52:38.136Z,85.20
2023-08-25T22:55:06.462Z,85.20
2023-08-25T22:57:34.268Z,85.20
2023-08-25T23:00:05.971Z,85.20
2023-08-25T23:02:33.790Z,85.20
2023-08-25T23:05:01.792Z,85.20
2023-08-25T23:07:29.542Z,85.20
2023-08-25T23:09:57.418Z,85.10
2023-08-25T23:12:25.146Z,85.10
2023-08-25T23:14:52.923Z,85.10
2023-08-25T23:17:21.975Z,85.10
2023-08-25T23:19:49.824Z,85.10
2023-08-25T23:22:17.583Z,85.10
2023-08-25T23:24:46.928Z,85.10
2023-08-25T23:27:16.286Z,85.10
2023-08-25T23:29:44.080Z,85.10
2023-08-25T23:32:11.838Z,85.10
2023-08-25T23:34:40.899Z,85.00
2023-08-25T23:37:08.665Z,85.10
2023-08-25T23:39:36.403Z,85.10
2023-08-25T23:42:04.492Z,85.10
2023-08-25T23:44:32.383Z,85.00
2023-08-25T23:47:00.141Z,85.00
2023-08-25T23:49:28.770Z,85.00
2023-08-25T23:51:59.331Z,85.00
2023-08-25T23:54:27.556Z,85.00
2023-08-25T23:56:55.343Z,84.90
2023-08-25T23:59:23.090Z,85.00
